Time;durP1;ratioP1;P1;durP2;ratioP2;P2;SDS_P1;SDS_P2;PMS_P1;PMS_P2;Temp;Humidity;BMP_temperature;BMP_pressure;BME280_temperature;BME280_humidity;BME280_pressure;Samples;Min_cycle;Max_cycle;Signal;HPM_P1;HPM_P2
2022/01/01 00:01:35;;;;;;;;;;;10.60;99.90;;;;;;5137508;27;19935;-59
2022/01/01 00:04:01;;;;;;;;;;;10.60;99.90;;;;;;5132906;27;19928;-59
2022/01/01 00:06:26;;;;;;;;;;;10.70;99.90;;;;;;5129083;27;19928;-62
2022/01/01 00:08:52;;;;;;;;;;;10.60;99.90;;;;;;5144807;27;19927;-63
2022/01/01 00:11:18;;;;;;;;;;;10.60;99.90;;;;;;5138905;27;20333;-66
2022/01/01 00:13:43;;;;;;;;;;;10.60;99.90;;;;;;5144020;27;19931;-57
2022/01/01 00:16:09;;;;;;;;;;;10.60;99.90;;;;;;5147158;27;20376;-56
2022/01/01 00:18:35;;;;;;;;;;;10.60;99.90;;;;;;5144674;27;19928;-60
2022/01/01 00:21:01;;;;;;;;;;;10.60;99.90;;;;;;5128688;27;20426;-63
2022/01/01 00:23:27;;;;;;;;;;;10.60;99.90;;;;;;5141917;27;20026;-67
2022/01/01 00:25:52;;;;;;;;;;;10.60;99.90;;;;;;5144528;27;19987;-56
2022/01/01 00:28:18;;;;;;;;;;;10.60;99.90;;;;;;5133218;27;19935;-62
2022/01/01 00:30:43;;;;;;;;;;;10.50;99.90;;;;;;5143378;27;20018;-63
2022/01/01 00:33:09;;;;;;;;;;;10.60;99.90;;;;;;5139768;27;19927;-57
2022/01/01 00:35:35;;;;;;;;;;;10.60;99.90;;;;;;5136333;27;19974;-57
2022/01/01 00:38:00;;;;;;;;;;;10.50;99.90;;;;;;5146792;27;19934;-56
2022/01/01 00:40:26;;;;;;;;;;;10.60;99.90;;;;;;5112594;27;20042;-57
2022/01/01 00:42:51;;;;;;;;;;;10.60;99.90;;;;;;5143657;27;19932;-57
2022/01/01 00:45:17;;;;;;;;;;;10.60;99.90;;;;;;5138440;27;19971;-57
2022/01/01 00:47:42;;;;;;;;;;;10.60;99.90;;;;;;5133568;27;19935;-57
2022/01/01 00:50:08;;;;;;;;;;;10.50;99.90;;;;;;5146865;27;19927;-55
2022/01/01 00:52:34;;;;;;;;;;;10.50;99.90;;;;;;5134116;27;20024;-59
2022/01/01 00:54:59;;;;;;;;;;;10.50;99.90;;;;;;5142375;27;19927;-56
2022/01/01 00:57:25;;;;;;;;;;;10.50;99.90;;;;;;5140981;27;20384;-57
2022/01/01 00:59:54;;;;;;;;;;;10.60;99.90;;;;;;5128367;27;19934;-56
2022/01/01 01:02:19;;;;;;;;;;;10.50;99.90;;;;;;5127610;27;19927;-56
2022/01/01 01:04:45;;;;;;;;;;;10.50;99.90;;;;;;5142648;27;19928;-61
2022/01/01 01:07:12;;;;;;;;;;;10.40;99.90;;;;;;5131815;27;19927;-56
2022/01/01 01:09:38;;;;;;;;;;;10.60;99.90;;;;;;5135350;27;19980;-57
2022/01/01 01:12:04;;;;;;;;;;;10.40;99.90;;;;;;5129775;27;19931;-59
2022/01/01 01:14:39;;;;;;;;;;;10.40;99.90;;;;;;5145217;27;19972;-56
2022/01/01 01:17:05;;;;;;;;;;;10.40;99.90;;;;;;5138001;27;19942;-57
2022/01/01 01:19:30;;;;;;;;;;;10.30;99.90;;;;;;5137099;27;19935;-63
2022/01/01 01:21:57;;;;;;;;;;;10.30;99.90;;;;;;5143483;27;20010;-57
2022/01/01 01:24:24;;;;;;;;;;;10.30;99.90;;;;;;5131215;27;19931;-56
2022/01/01 01:26:51;;;;;;;;;;;10.20;99.90;;;;;;5141961;27;19928;-59
2022/01/01 01:29:17;;;;;;;;;;;10.30;99.90;;;;;;5129888;27;19980;-56
2022/01/01 01:31:43;;;;;;;;;;;10.20;99.90;;;;;;5133700;27;20026;-60
2022/01/01 01:34:08;;;;;;;;;;;10.10;99.90;;;;;;5146289;27;20023;-56
2022/01/01 01:36:34;;;;;;;;;;;10.10;99.90;;;;;;5133317;27;20018;-57
2022/01/01 01:38:59;;;;;;;;;;;10.10;99.90;;;;;;5139721;27;20010;-58
2022/01/01 01:41:29;;;;;;;;;;;10.10;99.90;;;;;;5129870;27;20467;-59
2022/01/01 01:43:56;;;;;;;;;;;10.10;99.90;;;;;;5129696;27;19981;-67
2022/01/01 01:46:22;;;;;;;;;;;10.20;99.90;;;;;;5144199;27;19932;-65
2022/01/01 01:48:48;;;;;;;;;;;10.20;99.90;;;;;;5134805;27;19934;-66
2022/01/01 01:51:14;;;;;;;;;;;10.10;99.90;;;;;;5138845;27;19985;-61
2022/01/01 01:53:39;;;;;;;;;;;10.10;99.90;;;;;;5142881;27;19927;-63
2022/01/01 01:56:05;;;;;;;;;;;10.20;99.90;;;;;;5132065;27;19934;-66
2022/01/01 01:58:30;;;;;;;;;;;10.20;99.90;;;;;;5142524;27;20313;-67
2022/01/01 02:03:25;;;;;;;;;;;10.40;99.90;;;;;;5150359;27;19927;-65
2022/01/01 02:05:52;;;;;;;;;;;10.20;99.90;;;;;;5137723;27;20404;-64
2022/01/01 02:08:19;;;;;;;;;;;10.20;99.90;;;;;;5142301;27;19985;-61
2022/01/01 02:10:47;;;;;;;;;;;10.20;99.90;;;;;;5147342;27;20084;-60
2022/01/01 02:13:18;;;;;;;;;;;10.20;99.90;;;;;;5143044;27;20017;-57
2022/01/01 02:18:16;;;;;;;;;;;10.20;99.90;;;;;;5148057;27;19927;-57
2022/01/01 02:20:43;;;;;;;;;;;10.20;99.90;;;;;;5137135;27;20442;-59
2022/01/01 02:23:13;;;;;;;;;;;10.20;99.90;;;;;;5143720;27;20015;-56
2022/01/01 02:25:39;;;;;;;;;;;10.20;99.90;;;;;;5146213;27;20376;-57
2022/01/01 02:28:05;;;;;;;;;;;10.20;99.90;;;;;;5135559;27;19927;-58
2022/01/01 02:30:31;;;;;;;;;;;10.20;99.90;;;;;;5149223;27;20455;-60
2022/01/01 02:32:56;;;;;;;;;;;10.20;99.90;;;;;;5140111;27;20249;-58
2022/01/01 02:35:22;;;;;;;;;;;10.20;99.90;;;;;;5141039;27;20229;-60
2022/01/01 02:37:47;;;;;;;;;;;10.20;99.90;;;;;;5131943;27;20304;-59
2022/01/01 02:40:14;;;;;;;;;;;10.20;99.90;;;;;;5148874;27;19969;-57
2022/01/01 02:42:39;;;;;;;;;;;10.30;99.90;;;;;;5147567;27;19950;-58
2022/01/01 02:45:10;;;;;;;;;;;10.30;99.90;;;;;;5140749;27;20372;-57
2022/01/01 02:47:36;;;;;;;;;;;10.20;99.90;;;;;;5138385;27;19935;-59
2022/01/01 02:50:02;;;;;;;;;;;10.30;99.90;;;;;;5147699;27;19931;-56
2022/01/01 02:52:28;;;;;;;;;;;10.30;99.90;;;;;;5135727;27;19934;-57
2022/01/01 02:54:53;;;;;;;;;;;10.30;99.90;;;;;;5145290;27;19927;-59
2022/01/01 02:57:19;;;;;;;;;;;10.30;99.90;;;;;;5140600;27;20015;-57
2022/01/01 02:59:44;;;;;;;;;;;10.30;99.90;;;;;;5146338;27;20399;-56
2022/01/01 03:02:10;;;;;;;;;;;10.30;99.90;;;;;;5134974;27;19928;-56
2022/01/01 03:04:35;;;;;;;;;;;10.40;99.90;;;;;;5137821;27;19927;-57
2022/01/01 03:07:01;;;;;;;;;;;10.30;99.90;;;;;;5143985;27;19927;-56
2022/01/01 03:09:34;;;;;;;;;;;10.40;99.90;;;;;;5134811;27;20473;-56
2022/01/01 03:12:07;;;;;;;;;;;10.30;99.90;;;;;;5147596;27;19931;-56
2022/01/01 03:14:33;;;;;;;;;;;10.40;99.90;;;;;;5140563;27;19927;-56
2022/01/01 03:16:59;;;;;;;;;;;10.40;99.90;;;;;;5139573;27;19927;-57
2022/01/01 03:19:25;;;;;;;;;;;10.40;99.90;;;;;;5140066;27;19934;-56
2022/01/01 03:21:50;;;;;;;;;;;10.40;99.90;;;;;;5147302;27;19927;-57
2022/01/01 03:24:16;;;;;;;;;;;10.40;99.90;;;;;;5134921;27;19931;-57
2022/01/01 03:26:42;;;;;;;;;;;10.40;99.90;;;;;;5145866;27;20090;-56
2022/01/01 03:29:07;;;;;;;;;;;10.40;99.90;;;;;;5133205;27;19928;-56
2022/01/01 03:31:33;;;;;;;;;;;10.40;99.90;;;;;;5134218;27;19946;-57
2022/01/01 03:33:59;;;;;;;;;;;10.50;99.90;;;;;;5148029;27;19927;-57
2022/01/01 03:36:25;;;;;;;;;;;10.40;99.90;;;;;;5134625;27;20408;-56
2022/01/01 03:38:50;;;;;;;;;;;10.40;99.90;;;;;;5143295;27;19974;-56
2022/01/01 03:41:16;;;;;;;;;;;10.40;99.90;;;;;;5131941;27;20364;-56
2022/01/01 03:43:41;;;;;;;;;;;10.50;99.90;;;;;;5131560;27;19932;-56
2022/01/01 03:46:07;;;;;;;;;;;10.50;99.90;;;;;;5129054;27;20066;-57
2022/01/01 03:48:33;;;;;;;;;;;10.60;99.90;;;;;;5134669;27;19927;-57
2022/01/01 03:50:58;;;;;;;;;;;10.50;99.90;;;;;;5143452;27;19961;-56
2022/01/01 03:53:25;;;;;;;;;;;10.50;99.90;;;;;;5139546;27;19927;-56
2022/01/01 03:55:51;;;;;;;;;;;10.50;99.90;;;;;;5145893;27;19934;-57
2022/01/01 03:58:16;;;;;;;;;;;10.50;99.90;;;;;;5134225;27;20021;-55
2022/01/01 04:00:42;;;;;;;;;;;10.50;99.90;;;;;;5145656;27;20035;-59
2022/01/01 04:03:08;;;;;;;;;;;10.50;99.90;;;;;;5133254;27;19931;-56
2022/01/01 04:05:35;;;;;;;;;;;10.50;99.90;;;;;;5143817;27;19935;-56
2022/01/01 04:08:01;;;;;;;;;;;10.50;99.90;;;;;;5134128;27;19928;-56
2022/01/01 04:10:29;;;;;;;;;;;10.50;99.90;;;;;;5128902;27;20014;-56
2022/01/01 04:12:54;;;;;;;;;;;10.40;99.90;;;;;;5135634;27;19927;-56
2022/01/01 04:15:20;;;;;;;;;;;10.50;99.90;;;;;;5141678;27;19933;-67
2022/01/01 04:17:45;;;;;;;;;;;10.40;99.90;;;;;;5135695;27;20297;-57
2022/01/01 04:20:11;;;;;;;;;;;10.40;99.90;;;;;;5147911;27;19923;-61
2022/01/01 04:22:36;;;;;;;;;;;10.50;99.90;;;;;;5133358;27;19934;-56
2022/01/01 04:25:02;;;;;;;;;;;10.40;99.90;;;;;;5128317;27;20018;-56
2022/01/01 04:27:28;;;;;;;;;;;10.40;99.90;;;;;;5136514;27;20045;-56
2022/01/01 04:29:54;;;;;;;;;;;10.40;99.90;;;;;;5146217;27;20386;-57
2022/01/01 04:32:19;;;;;;;;;;;10.40;99.90;;;;;;5133712;27;19934;-56
2022/01/01 04:34:45;;;;;;;;;;;10.40;99.90;;;;;;5143157;27;20546;-56
2022/01/01 04:37:15;;;;;;;;;;;10.40;99.90;;;;;;5131646;27;19927;-56
2022/01/01 04:39:41;;;;;;;;;;;10.40;99.90;;;;;;5127735;27;19927;-58
2022/01/01 04:42:07;;;;;;;;;;;10.40;99.90;;;;;;5145605;27;19934;-57
2022/01/01 04:44:32;;;;;;;;;;;10.40;99.90;;;;;;5129701;27;20672;-59
2022/01/01 04:46:58;;;;;;;;;;;11.90;99.90;;;;;;5136394;27;20369;-56
2022/01/01 04:49:24;;;;;;;;;;;10.40;99.90;;;;;;5136482;27;19927;-56
2022/01/01 04:51:49;;;;;;;;;;;10.50;99.90;;;;;;5145055;27;19927;-57
2022/01/01 04:54:16;;;;;;;;;;;10.40;99.90;;;;;;5132763;27;19928;-57
2022/01/01 04:56:47;;;;;;;;;;;10.40;99.90;;;;;;5121907;27;20021;-59
2022/01/01 04:59:13;;;;;;;;;;;10.40;99.90;;;;;;5139785;27;20366;-63
2022/01/01 05:01:39;;;;;;;;;;;10.40;99.90;;;;;;5129375;27;19927;-59
2022/01/01 05:04:05;;;;;;;;;;;10.40;99.90;;;;;;5130749;27;19927;-57
2022/01/01 05:06:31;;;;;;;;;;;10.40;99.90;;;;;;5146243;27;19934;-68
2022/01/01 05:08:56;;;;;;;;;;;10.40;99.90;;;;;;5131348;27;19927;-67
2022/01/01 05:11:22;;;;;;;;;;;10.40;99.90;;;;;;5131688;27;20328;-56
2022/01/01 05:13:47;;;;;;;;;;;10.40;99.90;;;;;;5143511;27;19931;-55
2022/01/01 05:16:17;;;;;;;;;;;10.40;99.90;;;;;;5132445;27;19927;-56
2022/01/01 05:18:43;;;;;;;;;;;10.40;99.90;;;;;;5143415;27;20392;-58
2022/01/01 05:21:08;;;;;;;;;;;10.30;99.90;;;;;;5139048;27;20042;-57
2022/01/01 05:23:34;;;;;;;;;;;10.40;99.90;;;;;;5136271;27;19927;-56
2022/01/01 05:25:59;;;;;;;;;;;10.40;99.90;;;;;;5129221;27;20026;-56
2022/01/01 05:28:25;;;;;;;;;;;10.50;99.90;;;;;;5131034;27;19933;-58
2022/01/01 05:30:51;;;;;;;;;;;10.50;99.90;;;;;;5142425;27;19970;-60
2022/01/01 05:33:17;;;;;;;;;;;10.50;99.90;;;;;;5128647;27;19931;-58
2022/01/01 05:35:42;;;;;;;;;;;10.50;99.90;;;;;;5143008;27;19939;-56
2022/01/01 05:38:08;;;;;;;;;;;10.50;99.90;;;;;;5130266;27;19927;-56
2022/01/01 05:40:33;;;;;;;;;;;10.50;99.90;;;;;;5146729;27;19927;-63
2022/01/01 05:42:59;;;;;;;;;;;10.50;99.90;;;;;;5138984;27;19995;-56
2022/01/01 05:45:24;;;;;;;;;;;10.50;99.90;;;;;;5141295;27;20060;-56
2022/01/01 05:47:50;;;;;;;;;;;10.50;99.90;;;;;;5133260;27;19923;-57
2022/01/01 05:50:17;;;;;;;;;;;10.50;99.90;;;;;;5143736;27;20451;-57
2022/01/01 05:52:43;;;;;;;;;;;10.50;99.90;;;;;;5134651;27;20354;-57
2022/01/01 05:55:09;;;;;;;;;;;10.80;99.90;;;;;;5140029;27;19972;-59
2022/01/01 05:57:34;;;;;;;;;;;10.50;99.90;;;;;;5132636;27;19927;-59
2022/01/01 06:00:00;;;;;;;;;;;10.60;99.90;;;;;;5143746;27;20066;-59
2022/01/01 06:02:25;;;;;;;;;;;10.60;99.90;;;;;;5131288;27;20312;-58
2022/01/01 06:04:51;;;;;;;;;;;10.50;99.90;;;;;;5136018;27;19927;-60
2022/01/01 06:07:16;;;;;;;;;;;10.50;99.90;;;;;;5138429;27;20470;-59
2022/01/01 06:09:42;;;;;;;;;;;10.50;99.90;;;;;;5128065;27;20349;-59
2022/01/01 06:12:08;;;;;;;;;;;10.50;99.90;;;;;;5141162;27;19930;-60
2022/01/01 06:14:33;;;;;;;;;;;10.50;99.90;;;;;;5144606;27;19934;-59
2022/01/01 06:16:59;;;;;;;;;;;10.60;99.90;;;;;;5133020;27;19927;-59
2022/01/01 06:19:25;;;;;;;;;;;11.00;99.90;;;;;;5140051;27;19927;-59
2022/01/01 06:21:50;;;;;;;;;;;10.50;99.90;;;;;;5133443;27;19927;-59
2022/01/01 06:24:16;;;;;;;;;;;10.60;99.90;;;;;;5144401;27;19938;-60
2022/01/01 06:26:41;;;;;;;;;;;10.60;99.90;;;;;;5143477;27;20406;-56
2022/01/01 06:29:07;;;;;;;;;;;10.60;99.90;;;;;;5135777;27;20017;-57
2022/01/01 06:31:32;;;;;;;;;;;10.60;99.90;;;;;;5144301;27;19978;-56
2022/01/01 06:33:58;;;;;;;;;;;10.60;99.90;;;;;;5132773;27;19935;-56
2022/01/01 06:36:23;;;;;;;;;;;10.50;99.90;;;;;;5145292;27;20398;-56
2022/01/01 06:38:49;;;;;;;;;;;10.60;99.90;;;;;;5135319;27;19962;-57
2022/01/01 06:41:16;;;;;;;;;;;10.50;99.90;;;;;;5147876;27;19927;-57
2022/01/01 06:43:41;;;;;;;;;;;10.50;99.90;;;;;;5133087;27;19980;-57
2022/01/01 06:46:07;;;;;;;;;;;10.50;99.90;;;;;;5144311;27;19931;-56
2022/01/01 06:48:33;;;;;;;;;;;10.50;99.90;;;;;;5133314;27;19966;-56
2022/01/01 06:50:59;;;;;;;;;;;10.50;99.90;;;;;;5144121;27;20392;-56
2022/01/01 06:53:24;;;;;;;;;;;10.50;99.90;;;;;;5144261;27;19931;-56
2022/01/01 06:55:50;;;;;;;;;;;10.50;99.90;;;;;;5137078;27;20388;-57
2022/01/01 06:58:15;;;;;;;;;;;10.50;99.90;;;;;;5140398;27;19927;-56
2022/01/01 07:00:41;;;;;;;;;;;10.50;99.90;;;;;;5121002;27;20361;-58
2022/01/01 07:03:07;;;;;;;;;;;10.50;99.90;;;;;;5133801;27;20054;-57
2022/01/01 07:05:32;;;;;;;;;;;10.50;99.90;;;;;;5144674;27;20358;-57
2022/01/01 07:07:58;;;;;;;;;;;10.50;99.90;;;;;;5135869;27;19935;-56
2022/01/01 07:10:24;;;;;;;;;;;10.60;99.90;;;;;;5134592;27;20012;-57
2022/01/01 07:12:50;;;;;;;;;;;10.50;99.90;;;;;;5145564;27;20127;-57
2022/01/01 07:15:15;;;;;;;;;;;10.50;99.90;;;;;;5142200;27;19927;-56
2022/01/01 07:17:41;;;;;;;;;;;10.50;99.90;;;;;;5138069;27;19928;-56
2022/01/01 07:20:07;;;;;;;;;;;10.50;99.90;;;;;;5146729;27;20300;-58
2022/01/01 07:22:43;;;;;;;;;;;10.40;99.90;;;;;;5135031;27;19930;-59
2022/01/01 07:25:09;;;;;;;;;;;10.60;99.90;;;;;;5148983;27;20356;-59
2022/01/01 07:27:35;;;;;;;;;;;10.60;99.90;;;;;;5137910;27;19927;-59
2022/01/01 07:30:01;;;;;;;;;;;10.60;99.90;;;;;;5147116;27;19933;-56
2022/01/01 07:32:26;;;;;;;;;;;10.60;99.90;;;;;;5142831;27;19927;-57
2022/01/01 07:34:52;;;;;;;;;;;10.60;99.90;;;;;;5138655;27;20288;-56
2022/01/01 07:37:17;;;;;;;;;;;10.60;99.90;;;;;;5139243;27;19978;-57
2022/01/01 07:39:43;;;;;;;;;;;10.60;99.90;;;;;;5145436;27;19998;-56
2022/01/01 07:42:08;;;;;;;;;;;10.60;99.90;;;;;;5148763;27;20287;-57
2022/01/01 07:44:34;;;;;;;;;;;10.70;99.90;;;;;;5135710;27;19926;-58
2022/01/01 07:47:01;;;;;;;;;;;10.70;99.90;;;;;;5143265;27;19927;-57
2022/01/01 07:49:26;;;;;;;;;;;10.70;99.90;;;;;;5138638;27;19927;-56
2022/01/01 07:51:52;;;;;;;;;;;10.70;99.90;;;;;;5135507;27;19938;-57
2022/01/01 07:54:17;;;;;;;;;;;10.70;99.90;;;;;;5148060;27;19927;-56
2022/01/01 07:56:43;;;;;;;;;;;10.70;99.90;;;;;;5134994;27;20354;-56
2022/01/01 07:59:08;;;;;;;;;;;10.70;99.90;;;;;;5139709;27;19926;-56
2022/01/01 08:01:35;;;;;;;;;;;10.70;99.90;;;;;;5138687;27;20392;-56
2022/01/01 08:04:02;;;;;;;;;;;10.70;99.90;;;;;;5137691;27;19934;-56
2022/01/01 08:06:30;;;;;;;;;;;10.80;99.90;;;;;;5134671;27;19927;-55
2022/01/01 08:08:56;;;;;;;;;;;10.80;99.90;;;;;;5143504;27;20304;-56
2022/01/01 08:11:22;;;;;;;;;;;10.80;99.90;;;;;;5135260;27;19970;-56
2022/01/01 08:13:47;;;;;;;;;;;10.80;99.90;;;;;;5135984;27;20414;-56
2022/01/01 08:16:13;;;;;;;;;;;10.90;99.90;;;;;;5134784;27;19927;-59
2022/01/01 08:18:39;;;;;;;;;;;10.80;99.90;;;;;;5145312;27;19980;-56
2022/01/01 08:21:04;;;;;;;;;;;10.90;99.90;;;;;;5137651;27;19931;-56
2022/01/01 08:23:30;;;;;;;;;;;10.90;99.90;;;;;;5140550;27;19971;-56
2022/01/01 08:25:58;;;;;;;;;;;10.90;99.90;;;;;;5147053;27;19973;-59
2022/01/01 08:28:23;;;;;;;;;;;11.00;99.90;;;;;;5133343;27;19942;-56
2022/01/01 08:30:49;;;;;;;;;;;11.00;99.90;;;;;;5142223;27;19928;-56
2022/01/01 08:33:15;;;;;;;;;;;11.00;99.90;;;;;;5138838;27;20369;-56
2022/01/01 08:35:41;;;;;;;;;;;11.00;99.90;;;;;;5143921;27;19933;-59
2022/01/01 08:38:06;;;;;;;;;;;11.30;99.90;;;;;;5142184;27;19927;-56
2022/01/01 08:40:32;;;;;;;;;;;11.00;99.90;;;;;;5130659;27;19931;-56
2022/01/01 08:42:57;;;;;;;;;;;11.10;99.90;;;;;;5137887;27;19938;-57
2022/01/01 08:45:23;;;;;;;;;;;11.10;99.90;;;;;;5137771;27;20018;-57
2022/01/01 08:47:49;;;;;;;;;;;11.10;99.90;;;;;;5133797;27;20272;-56
2022/01/01 08:50:15;;;;;;;;;;;11.10;99.90;;;;;;5146683;27;19934;-58
2022/01/01 08:52:40;;;;;;;;;;;11.20;99.90;;;;;;5133179;27;19927;-57
2022/01/01 08:55:07;;;;;;;;;;;11.20;99.90;;;;;;5128728;27;19931;-56
2022/01/01 08:57:32;;;;;;;;;;;11.20;99.90;;;;;;5121123;27;20073;-56
2022/01/01 08:59:59;;;;;;;;;;;11.20;99.90;;;;;;5130341;27;20082;-56
2022/01/01 09:02:25;;;;;;;;;;;11.20;99.90;;;;;;5133991;27;20022;-57
2022/01/01 09:04:51;;;;;;;;;;;11.30;99.90;;;;;;5136264;27;19934;-59
2022/01/01 09:07:17;;;;;;;;;;;11.30;99.90;;;;;;5142905;27;19928;-57
2022/01/01 09:09:43;;;;;;;;;;;11.30;99.90;;;;;;5129117;27;20027;-57
2022/01/01 09:12:09;;;;;;;;;;;11.30;99.90;;;;;;5139892;27;19939;-56
2022/01/01 09:14:35;;;;;;;;;;;11.30;99.90;;;;;;5136546;27;19927;-57
2022/01/01 09:17:01;;;;;;;;;;;11.40;99.90;;;;;;5136649;27;19934;-60
2022/01/01 09:19:26;;;;;;;;;;;11.50;99.90;;;;;;5135828;27;20009;-57
2022/01/01 09:21:52;;;;;;;;;;;11.50;99.90;;;;;;5131352;27;20479;-58
2022/01/01 09:24:18;;;;;;;;;;;11.50;99.90;;;;;;5144495;27;19927;-59
2022/01/01 09:26:43;;;;;;;;;;;11.50;99.90;;;;;;5134550;27;20018;-62
2022/01/01 09:29:10;;;;;;;;;;;11.60;99.90;;;;;;5132782;27;20388;-61
2022/01/01 09:31:42;;;;;;;;;;;11.70;99.90;;;;;;5132576;27;21641;-63
2022/01/01 09:34:08;;;;;;;;;;;11.70;99.90;;;;;;5131070;27;19927;-63
2022/01/01 09:36:34;;;;;;;;;;;11.80;99.90;;;;;;5135235;27;19971;-57
2022/01/01 09:38:59;;;;;;;;;;;11.80;99.90;;;;;;5130249;27;19928;-65
2022/01/01 09:41:25;;;;;;;;;;;11.80;99.90;;;;;;5130153;27;19927;-63
2022/01/01 09:43:54;;;;;;;;;;;11.90;99.90;;;;;;5128777;27;20435;-62
2022/01/01 09:46:20;;;;;;;;;;;11.90;99.90;;;;;;5145472;27;19927;-60
2022/01/01 09:48:45;;;;;;;;;;;11.90;99.90;;;;;;5133525;27;19927;-61
2022/01/01 09:51:11;;;;;;;;;;;12.00;99.90;;;;;;5131931;27;20396;-59
2022/01/01 09:53:37;;;;;;;;;;;12.20;99.90;;;;;;5129236;27;19971;-57
2022/01/01 09:56:03;;;;;;;;;;;12.30;99.90;;;;;;5133790;27;19938;-56
2022/01/01 09:58:30;;;;;;;;;;;12.10;99.90;;;;;;5128488;27;19974;-56
2022/01/01 10:00:56;;;;;;;;;;;12.20;99.90;;;;;;5129575;27;20291;-56
2022/01/01 10:03:29;;;;;;;;;;;12.30;99.90;;;;;;5123230;27;19934;-56
2022/01/01 10:06:13;;;;;;;;;;;12.30;99.90;;;;;;5127484;27;19981;-56
2022/01/01 10:08:40;;;;;;;;;;;12.30;99.90;;;;;;5127952;27;19932;-63
2022/01/01 10:11:07;;;;;;;;;;;12.30;99.90;;;;;;5126589;27;19928;-66
2022/01/01 10:13:36;;;;;;;;;;;12.40;99.90;;;;;;5125788;27;20321;-60
2022/01/01 10:16:02;;;;;;;;;;;12.40;99.90;;;;;;5129970;27;19970;-58
2022/01/01 10:18:32;;;;;;;;;;;12.40;99.90;;;;;;5126054;27;19931;-60
2022/01/01 10:21:18;;;;;;;;;;;12.40;99.90;;;;;;5126942;27;19981;-57
2022/01/01 10:23:45;;;;;;;;;;;12.40;99.90;;;;;;5130918;27;19932;-56
2022/01/01 10:29:26;;;;;;;;;;;12.40;99.90;;;;;;5127724;27;19928;-56
2022/01/01 10:32:08;;;;;;;;;;;12.50;99.90;;;;;;5131035;27;19927;-56
2022/01/01 10:34:34;;;;;;;;;;;12.40;99.90;;;;;;5132748;27;19927;-57
2022/01/01 10:37:00;;;;;;;;;;;12.50;99.90;;;;;;5131854;27;19930;-56
2022/01/01 10:39:27;;;;;;;;;;;12.50;99.90;;;;;;5132531;27;19931;-57
2022/01/01 10:42:05;;;;;;;;;;;12.50;99.90;;;;;;5131528;27;20426;-58
2022/01/01 10:44:31;;;;;;;;;;;12.50;99.90;;;;;;5138451;27;19928;-56
2022/01/01 10:46:58;;;;;;;;;;;12.50;99.90;;;;;;5135874;27;21082;-56
2022/01/01 10:49:35;;;;;;;;;;;12.50;99.90;;;;;;5132440;27;19931;-57
2022/01/01 10:52:12;;;;;;;;;;;12.60;99.90;;;;;;5129077;27;19927;-57
2022/01/01 10:54:38;;;;;;;;;;;12.60;99.90;;;;;;5127178;27;19927;-56
2022/01/01 10:57:07;;;;;;;;;;;12.60;99.90;;;;;;5127694;27;19927;-57
2022/01/01 10:59:37;;;;;;;;;;;12.60;99.90;;;;;;5137023;27;19953;-56
2022/01/01 11:02:05;;;;;;;;;;;12.60;99.90;;;;;;5146179;27;19949;-56
2022/01/01 11:04:32;;;;;;;;;;;12.60;99.90;;;;;;5139480;27;19934;-58
2022/01/01 11:06:58;;;;;;;;;;;12.60;99.90;;;;;;5134965;27;19934;-58
2022/01/01 11:09:23;;;;;;;;;;;12.60;99.90;;;;;;5128286;27;20376;-57
2022/01/01 11:11:49;;;;;;;;;;;12.70;99.90;;;;;;5139920;27;19970;-56
2022/01/01 11:14:16;;;;;;;;;;;12.70;99.90;;;;;;5134973;27;20337;-60
2022/01/01 11:16:42;;;;;;;;;;;12.80;99.90;;;;;;5145661;27;20265;-56
2022/01/01 11:19:08;;;;;;;;;;;12.80;99.90;;;;;;5141968;27;20324;-58
2022/01/01 11:21:33;;;;;;;;;;;12.80;99.90;;;;;;5134958;27;20366;-57
2022/01/01 11:24:00;;;;;;;;;;;12.80;99.90;;;;;;5140933;27;19932;-60
2022/01/01 11:26:26;;;;;;;;;;;12.90;99.90;;;;;;5144728;27;20388;-60
2022/01/01 11:28:52;;;;;;;;;;;12.80;99.90;;;;;;5133013;27;19995;-57
2022/01/01 11:31:18;;;;;;;;;;;12.80;99.90;;;;;;5135432;27;19931;-58
2022/01/01 11:33:49;;;;;;;;;;;12.80;99.90;;;;;;5129958;27;19928;-57
2022/01/01 11:36:19;;;;;;;;;;;12.80;99.90;;;;;;5127234;27;19927;-58
2022/01/01 11:38:45;;;;;;;;;;;12.80;99.90;;;;;;5140992;27;19970;-59
2022/01/01 11:41:11;;;;;;;;;;;12.80;99.90;;;;;;5129349;27;20068;-58
2022/01/01 11:43:37;;;;;;;;;;;12.80;99.90;;;;;;5127433;27;19958;-57
2022/01/01 11:46:22;;;;;;;;;;;12.90;99.90;;;;;;5142201;27;19931;-57
2022/01/01 11:48:49;;;;;;;;;;;12.90;99.90;;;;;;5136030;27;19928;-59
2022/01/01 11:51:33;;;;;;;;;;;12.90;99.90;;;;;;5134817;27;19934;-59
2022/01/01 11:54:14;;;;;;;;;;;12.90;99.90;;;;;;5127257;27;19927;-57
2022/01/01 11:56:52;;;;;;;;;;;12.90;99.90;;;;;;5128739;27;19970;-57
2022/01/01 11:59:18;;;;;;;;;;;12.90;99.90;;;;;;5124528;27;19934;-58
2022/01/01 12:01:44;;;;;;;;;;;12.90;99.90;;;;;;5126938;27;19927;-60
2022/01/01 12:04:22;;;;;;;;;;;12.90;99.90;;;;;;5126366;27;19931;-56
2022/01/01 12:06:58;;;;;;;;;;;12.90;99.90;;;;;;5124402;27;20655;-59
2022/01/01 12:09:24;;;;;;;;;;;12.90;99.90;;;;;;5125195;27;20436;-59
2022/01/01 12:11:53;;;;;;;;;;;12.90;99.90;;;;;;5125608;27;19935;-58
2022/01/01 12:14:26;;;;;;;;;;;12.90;99.90;;;;;;5126067;27;19935;-57
2022/01/01 12:16:53;;;;;;;;;;;12.90;99.90;;;;;;5125791;27;19935;-56
2022/01/01 12:19:20;;;;;;;;;;;12.80;99.90;;;;;;5125154;27;19963;-56
2022/01/01 12:21:48;;;;;;;;;;;12.90;99.90;;;;;;5123387;27;19928;-57
2022/01/01 12:24:20;;;;;;;;;;;12.90;99.90;;;;;;5124712;27;20326;-57
2022/01/01 12:26:52;;;;;;;;;;;12.90;99.90;;;;;;5125431;27;19963;-56
2022/01/01 12:29:21;;;;;;;;;;;12.90;99.90;;;;;;5122288;27;20288;-59
2022/01/01 12:31:56;;;;;;;;;;;12.90;99.90;;;;;;5124738;27;19934;-57
2022/01/01 12:34:26;;;;;;;;;;;12.90;99.90;;;;;;5126974;27;20030;-57
2022/01/01 12:36:52;;;;;;;;;;;12.90;99.90;;;;;;5129612;27;19934;-59
2022/01/01 12:39:18;;;;;;;;;;;12.90;99.90;;;;;;5136203;27;19987;-58
2022/01/01 12:41:44;;;;;;;;;;;12.90;99.90;;;;;;5130268;27;19927;-57
2022/01/01 12:44:16;;;;;;;;;;;12.80;99.90;;;;;;5137789;27;19938;-56
2022/01/01 12:46:50;;;;;;;;;;;12.80;99.90;;;;;;5136113;27;19931;-56
2022/01/01 12:49:15;;;;;;;;;;;12.90;99.90;;;;;;5136461;27;19934;-56
2022/01/01 12:51:42;;;;;;;;;;;12.80;99.90;;;;;;5143453;27;20367;-56
2022/01/01 12:54:09;;;;;;;;;;;12.80;99.90;;;;;;5128670;27;20440;-58
2022/01/01 12:56:35;;;;;;;;;;;12.80;99.90;;;;;;5140846;27;20359;-59
2022/01/01 12:59:03;;;;;;;;;;;12.80;99.90;;;;;;5124254;27;19992;-56
2022/01/01 13:01:30;;;;;;;;;;;12.80;99.90;;;;;;5138698;27;19934;-56
2022/01/01 13:03:56;;;;;;;;;;;12.80;99.90;;;;;;5143212;27;19978;-57
2022/01/01 13:06:32;;;;;;;;;;;12.80;99.90;;;;;;5140773;27;20329;-57
2022/01/01 13:09:00;;;;;;;;;;;12.80;99.90;;;;;;5128533;27;19928;-58
2022/01/01 13:11:25;;;;;;;;;;;12.20;99.90;;;;;;5112530;27;19927;-59
2022/01/01 13:13:51;;;;;;;;;;;12.80;99.90;;;;;;5129815;27;19927;-58
2022/01/01 13:16:17;;;;;;;;;;;12.70;99.90;;;;;;5142625;27;20391;-59
2022/01/01 13:18:42;;;;;;;;;;;12.80;99.90;;;;;;5126794;27;19950;-59
2022/01/01 13:21:08;;;;;;;;;;;12.80;99.90;;;;;;5135164;27;19926;-58
2022/01/01 13:23:34;;;;;;;;;;;12.70;99.90;;;;;;5145744;27;19980;-57
2022/01/01 13:26:01;;;;;;;;;;;12.80;99.90;;;;;;5143158;27;20293;-58
2022/01/01 13:28:30;;;;;;;;;;;12.80;99.90;;;;;;5137317;27;20023;-59
2022/01/01 13:30:56;;;;;;;;;;;12.70;99.90;;;;;;5129896;27;20018;-59
2022/01/01 13:33:23;;;;;;;;;;;12.80;99.90;;;;;;5137179;27;19927;-58
2022/01/01 13:35:49;;;;;;;;;;;12.80;99.90;;;;;;5131400;27;19935;-58
2022/01/01 13:38:15;;;;;;;;;;;12.70;99.90;;;;;;5141748;27;19927;-59
2022/01/01 13:40:49;;;;;;;;;;;12.70;99.90;;;;;;5127490;27;19999;-59
2022/01/01 13:43:14;;;;;;;;;;;12.70;99.90;;;;;;5138687;27;20367;-57
2022/01/01 13:45:40;;;;;;;;;;;12.70;99.90;;;;;;5131922;27;20396;-58
2022/01/01 13:48:06;;;;;;;;;;;12.60;99.90;;;;;;5139392;27;19927;-59
2022/01/01 13:50:38;;;;;;;;;;;12.60;99.90;;;;;;5129393;27;19931;-60
2022/01/01 13:53:05;;;;;;;;;;;12.60;99.90;;;;;;5136625;27;19938;-60
2022/01/01 13:55:32;;;;;;;;;;;12.70;99.90;;;;;;5138489;27;20358;-59
2022/01/01 13:58:01;;;;;;;;;;;12.60;99.90;;;;;;5138625;27;20359;-60
2022/01/01 14:00:27;;;;;;;;;;;12.60;99.90;;;;;;5125163;27;19927;-58
2022/01/01 14:02:54;;;;;;;;;;;12.70;99.90;;;;;;5131047;27;19989;-59
2022/01/01 14:05:20;;;;;;;;;;;12.70;99.90;;;;;;5133621;27;19974;-60
2022/01/01 14:07:46;;;;;;;;;;;12.70;99.90;;;;;;5132080;27;20419;-59
2022/01/01 14:10:14;;;;;;;;;;;12.70;99.90;;;;;;5127072;27;19931;-57
2022/01/01 14:12:40;;;;;;;;;;;12.70;99.90;;;;;;5145153;27;19927;-59
2022/01/01 14:15:10;;;;;;;;;;;12.70;99.90;;;;;;5136418;27;20021;-60
2022/01/01 14:17:55;;;;;;;;;;;12.80;99.90;;;;;;5137856;27;19934;-57
2022/01/01 14:20:22;;;;;;;;;;;12.70;99.90;;;;;;5129573;27;20010;-59
2022/01/01 14:22:47;;;;;;;;;;;12.80;99.90;;;;;;5137928;27;20441;-57